»·PEaware :: UAL387 KBUR-KLAS

UAL387 :: KBUR-KLAS

FLIGHT INFORMATION

Flight Status: Arrived
Operator:
United Airlines
More flights by this operator :: More flights under this callsign
Pilot: Sergei F. (8485)
Aircraft: BOEING 737-200
(B732)
More flights by this aircraft type
Origin: KBUR Bob Hope-Burbank
United States
Destination: KLAS McCarran Intl
United States
More flights between these airports :: More routes between these airports
Route: +VNY3 DAG CLARR3
File this flight plan on PilotEdge
Remarks:
Altitude:
(Current/Filed)
23,000ft
Speed:
(Current/Filed)
400kts
Departed: 28-Sep-18 04:49 PM
Arrived: 28-Sep-18 05:33 PM
Distance/Time
Traveled:
194nm/0:44
Distance/Time
To Go:
Arrived

Flight Plot

Page will automatically refresh every two minutes.

Flight plan parsing failed; only flown route is shown


Map Options




Map Legend


Flown Route
Filed Route
Departure Airport
Arrival Airport
Navaid (VOR, NDB)
Fix

Horizontal Profiles

Position Reports

Time Latitude Longitude Heading Altitude Ground
Speed
28-Sep-18 16:29 34.196795 -118.351053 180 786ft 0kts
28-Sep-18 16:30 34.196795 -118.351053 180 786ft 0kts
28-Sep-18 16:31 34.196795 -118.351053 180 786ft 0kts
28-Sep-18 16:32 34.196795 -118.351053 180 786ft 0kts
28-Sep-18 16:33 34.196795 -118.351053 180 786ft 0kts
28-Sep-18 16:34 34.196795 -118.351053 180 786ft 0kts
28-Sep-18 16:35 34.196795 -118.351053 180 786ft 0kts
28-Sep-18 16:36 34.196795 -118.351053 180 786ft 0kts
28-Sep-18 16:37 34.196795 -118.351053 180 786ft 0kts
28-Sep-18 16:38 34.196796 -118.351053 180 786ft 0kts
28-Sep-18 16:39 34.196862 -118.351052 188 786ft 2kts
28-Sep-18 16:40 34.197158 -118.350582 275 786ft 0kts
28-Sep-18 16:41 34.197158 -118.350583 275 786ft 0kts
28-Sep-18 16:42 34.197179 -118.351561 270 786ft 11kts
28-Sep-18 16:43 34.197564 -118.354931 332 786ft 9kts
28-Sep-18 16:44 34.202369 -118.356348 347 786ft 24kts
28-Sep-18 16:45 34.208689 -118.358089 347 786ft 22kts
28-Sep-18 16:46 34.211578 -118.359071 313 786ft 0kts
28-Sep-18 16:47 34.211578 -118.359071 313 786ft 0kts
28-Sep-18 16:48 34.211578 -118.359071 313 786ft 0kts
28-Sep-18 16:49 34.211918 -118.359599 300 786ft 9kts
28-Sep-18 16:50 34.211887 -118.360344 165 786ft 1kts
28-Sep-18 16:51 34.183911 -118.356024 190 1435ft 169kts
28-Sep-18 16:52 34.148748 -118.402470 258 4002ft 217kts
28-Sep-18 16:53 34.193061 -118.443874 351 6786ft 245kts
28-Sep-18 16:54 34.260369 -118.455183 352 9556ft 249kts
28-Sep-18 16:55 34.331432 -118.466289 3 10958ft 259kts
28-Sep-18 16:56 34.394952 -118.426156 49 12277ft 270kts
28-Sep-18 16:57 34.446122 -118.352165 50 13418ft 316kts
28-Sep-18 16:58 34.507434 -118.260650 53 13640ft 380kts
28-Sep-18 16:59 34.572324 -118.158135 54 15197ft 389kts
28-Sep-18 17:00 34.635976 -118.050558 57 16570ft 397kts
28-Sep-18 17:01 34.655264 -117.920628 89 17787ft 398kts
28-Sep-18 17:02 34.664744 -117.785543 85 18992ft 406kts
28-Sep-18 17:03 34.682367 -117.672929 74 20154ft 411kts
28-Sep-18 17:04 34.722723 -117.517792 73 21555ft 419kts
28-Sep-18 17:05 34.757956 -117.381571 73 22550ft 426kts
28-Sep-18 17:06 34.787432 -117.265710 74 22958ft 441kts
28-Sep-18 17:07 34.824766 -117.119810 74 22922ft 464kts
28-Sep-18 17:08 34.870544 -116.940572 73 22878ft 486kts
28-Sep-18 17:09 34.904028 -116.809018 73 22871ft 488kts
28-Sep-18 17:10 34.944477 -116.651559 72 22873ft 486kts
28-Sep-18 17:11 35.004750 -116.507141 39 22892ft 485kts
28-Sep-18 17:12 35.104141 -116.398191 44 22919ft 485kts
28-Sep-18 17:13 35.196196 -116.281784 46 22915ft 486kts
28-Sep-18 17:14 35.288983 -116.163020 46 22908ft 472kts
28-Sep-18 17:15 35.374438 -116.053669 46 21310ft 429kts
28-Sep-18 17:16 35.453534 -115.952148 46 19625ft 395kts
28-Sep-18 17:17 35.528186 -115.856047 46 17387ft 383kts
28-Sep-18 17:18 35.597579 -115.766468 46 15157ft 348kts
28-Sep-18 17:19 35.662003 -115.685337 43 13124ft 322kts
28-Sep-18 17:20 35.725282 -115.609677 45 13058ft 325kts
28-Sep-18 17:21 35.799631 -115.552352 358 13075ft 327kts
28-Sep-18 17:22 35.889705 -115.557067 356 13044ft 321kts
28-Sep-18 17:23 35.978107 -115.561973 356 13019ft 317kts
28-Sep-18 17:24 36.044600 -115.511018 82 13032ft 306kts
28-Sep-18 17:25 36.035607 -115.409248 98 12204ft 292kts
28-Sep-18 17:26 36.027569 -115.314763 98 10756ft 267kts
28-Sep-18 17:27 36.020971 -115.227052 97 9729ft 241kts
28-Sep-18 17:28 36.015379 -115.147043 97 8926ft 222kts
28-Sep-18 17:29 36.012432 -115.072493 94 7261ft 216kts
28-Sep-18 17:30 36.015207 -115.003445 63 5980ft 202kts
28-Sep-18 17:31 36.067443 -114.995478 327 4967ft 192kts
28-Sep-18 17:32 36.074506 -115.050326 256 3537ft 162kts
28-Sep-18 17:33 36.073765 -115.103708 264 2519ft 151kts
28-Sep-18 17:34 36.073644 -115.145798 268 2123ft 49kts
28-Sep-18 17:35 36.075351 -115.151340 327 2123ft 0kts
28-Sep-18 17:36 36.075351 -115.151340 327 2123ft 0kts
28-Sep-18 17:37 36.077176 -115.152381 337 2123ft 7kts
28-Sep-18 17:38 36.077945 -115.149755 94 2123ft 12kts
28-Sep-18 17:39 36.077685 -115.145875 95 2123ft 7kts
28-Sep-18 17:40 36.077527 -115.143164 90 2123ft 9kts
28-Sep-18 17:41 36.078537 -115.141595 0 2123ft 7kts
28-Sep-18 17:42 36.079979 -115.140354 54 2123ft 0kts
28-Sep-18 17:43 36.079980 -115.140352 55 2123ft 0kts

Navigation Log

Ident Type
Flight plan parsing failed, navigation log unavailable